Time;durP1;ratioP1;P1;durP2;ratioP2;P2;SDS_P1;SDS_P2;PMS_P1;PMS_P2;Temp;Humidity;BMP_temperature;BMP_pressure;BME280_temperature;BME280_humidity;BME280_pressure;Samples;Min_cycle;Max_cycle;Signal;HPM_P1;HPM_P2
2023/09/02 00:00:43;;;;;;;9.00;4.20;;;14.50;99.90;;;;;;4973366;28;20045;-81
2023/09/02 00:03:09;;;;;;;9.07;4.28;;;14.40;99.90;;;;;;4972508;28;20524;-81
2023/09/02 00:05:35;;;;;;;9.70;4.13;;;14.40;99.90;;;;;;4974043;28;20046;-81
2023/09/02 00:08:00;;;;;;;9.60;4.25;;;14.40;99.90;;;;;;4971889;28;20050;-81
2023/09/02 00:10:26;;;;;;;6.47;3.53;;;14.40;99.90;;;;;;4988600;28;20038;-82
2023/09/02 00:12:52;;;;;;;7.15;4.78;;;14.40;99.90;;;;;;4978272;28;20046;-81
2023/09/02 00:15:18;;;;;;;8.85;4.82;;;14.30;99.90;;;;;;4976740;28;20078;-81
2023/09/02 00:17:43;;;;;;;7.18;4.70;;;14.30;99.90;;;;;;4972713;28;20477;-82
2023/09/02 00:20:10;;;;;;;9.40;4.22;;;14.30;99.90;;;;;;4973461;28;20065;-81
2023/09/02 00:22:36;;;;;;;9.93;4.60;;;14.30;99.90;;;;;;4972757;28;20524;-81
2023/09/02 00:25:01;;;;;;;9.23;4.00;;;14.30;99.90;;;;;;4973775;28;20078;-82
2023/09/02 00:27:27;;;;;;;8.57;4.13;;;14.20;99.90;;;;;;4974434;28;20513;-81
2023/09/02 00:29:52;;;;;;;10.75;4.78;;;14.20;99.90;;;;;;4982955;28;20043;-81
2023/09/02 00:32:19;;;;;;;9.32;4.90;;;14.20;99.90;;;;;;4976316;28;20074;-81
2023/09/02 00:34:46;;;;;;;7.70;4.30;;;14.20;99.90;;;;;;4981179;28;20039;-81
2023/09/02 00:37:12;;;;;;;7.82;3.85;;;14.10;99.90;;;;;;4983643;28;20093;-81
2023/09/02 00:39:38;;;;;;;7.43;4.55;;;14.10;99.90;;;;;;4973870;28;20070;-82
2023/09/02 00:42:06;;;;;;;8.18;5.10;;;14.10;99.90;;;;;;4984510;28;20043;-82
2023/09/02 00:44:35;;;;;;;9.30;4.88;;;14.10;99.90;;;;;;4973819;28;20043;-81
2023/09/02 00:47:02;;;;;;;10.20;5.57;;;14.00;99.90;;;;;;4971441;28;20151;-82
2023/09/02 00:49:27;;;;;;;7.70;4.22;;;14.00;99.90;;;;;;4973288;28;20055;-81
2023/09/02 00:51:53;;;;;;;9.50;5.38;;;14.20;99.90;;;;;;4971633;28;20357;-81
2023/09/02 00:54:19;;;;;;;10.07;5.93;;;14.00;99.90;;;;;;4975558;28;20099;-82
2023/09/02 00:56:44;;;;;;;9.65;5.43;;;14.00;99.90;;;;;;4979537;28;20042;-81
2023/09/02 00:59:12;;;;;;;9.00;5.68;;;14.00;99.90;;;;;;5001434;28;20049;-81
2023/09/02 01:01:41;;;;;;;9.02;4.47;;;14.00;99.90;;;;;;4980502;28;20034;-81
2023/09/02 01:04:07;;;;;;;6.53;4.10;;;13.90;99.90;;;;;;4979716;28;20433;-81
2023/09/02 01:06:37;;;;;;;9.35;4.90;;;13.90;99.90;;;;;;4970005;28;20038;-81
2023/09/02 01:09:04;;;;;;;9.25;5.53;;;13.90;99.90;;;;;;4973104;28;20072;-82
2023/09/02 01:11:30;;;;;;;8.90;5.20;;;13.90;99.90;;;;;;4979210;28;20051;-82
2023/09/02 01:13:56;;;;;;;7.40;4.43;;;13.90;99.90;;;;;;4975161;28;20081;-81
2023/09/02 01:16:22;;;;;;;6.45;4.10;;;13.90;99.90;;;;;;4980936;28;20120;-81
2023/09/02 01:18:48;;;;;;;7.50;4.30;;;13.90;99.90;;;;;;4978475;28;20062;-82
2023/09/02 01:21:33;;;;;;;9.45;5.78;;;13.90;99.90;;;;;;4962168;28;20047;-81
2023/09/02 01:24:24;;;;;;;9.30;5.53;;;13.80;99.90;;;;;;4977624;28;20477;-81
2023/09/02 01:27:10;;;;;;;7.10;4.03;;;13.80;99.90;;;;;;4976153;28;20043;-81
2023/09/02 01:30:01;;;;;;;11.25;5.75;;;13.90;99.90;;;;;;4980756;28;20113;-81
2023/09/02 01:32:33;;;;;;;8.88;4.90;;;13.80;99.90;;;;;;4977037;28;20114;-81
2023/09/02 01:35:04;;;;;;;10.00;5.72;;;13.80;99.90;;;;;;4981505;28;20046;-81
2023/09/02 01:37:33;;;;;;;9.75;5.65;;;13.80;99.90;;;;;;4988511;28;20082;-81
2023/09/02 01:39:59;;;;;;;8.70;5.60;;;13.80;99.90;;;;;;4978492;28;20688;-81
2023/09/02 01:42:26;;;;;;;6.75;4.07;;;13.80;99.90;;;;;;4975923;28;20053;-81
2023/09/02 01:44:52;;;;;;;6.50;3.72;;;13.70;99.90;;;;;;4979184;28;20093;-81
2023/09/02 01:47:18;;;;;;;8.85;5.38;;;13.60;99.90;;;;;;4977772;28;20070;-80
2023/09/02 01:49:46;;;;;;;7.78;4.72;;;13.70;99.90;;;;;;4987311;28;20129;-81
2023/09/02 01:52:14;;;;;;;9.85;5.88;;;13.70;99.90;;;;;;4973868;28;20124;-81
2023/09/02 01:54:40;;;;;;;7.85;4.55;;;13.70;99.90;;;;;;4976307;28;20050;-81
2023/09/02 01:57:06;;;;;;;11.48;6.07;;;13.70;99.90;;;;;;4978807;28;20082;-82
2023/09/02 01:59:32;;;;;;;10.70;5.20;;;13.70;99.90;;;;;;4973995;28;20069;-81
2023/09/02 02:01:57;;;;;;;13.57;6.50;;;13.70;99.90;;;;;;4974903;28;20441;-81
2023/09/02 02:04:38;;;;;;;11.60;5.90;;;13.70;99.90;;;;;;4971282;28;20422;-81
2023/09/02 02:07:13;;;;;;;9.90;6.43;;;13.60;99.90;;;;;;4971989;28;20405;-81
2023/09/02 02:09:42;;;;;;;11.30;7.22;;;13.70;99.90;;;;;;4971329;28;20034;-81
2023/09/02 02:12:10;;;;;;;12.15;6.85;;;13.60;99.90;;;;;;4974797;28;20046;-81
2023/09/02 02:14:36;;;;;;;9.80;6.13;;;13.60;99.90;;;;;;4976838;28;20097;-81
2023/09/02 02:17:03;;;;;;;11.27;6.10;;;13.60;99.90;;;;;;4972820;28;20038;-81
2023/09/02 02:19:29;;;;;;;10.65;6.68;;;13.60;99.90;;;;;;4974634;28;20047;-81
2023/09/02 02:21:55;;;;;;;12.88;7.22;;;13.60;99.90;;;;;;4970939;28;20066;-80
2023/09/02 02:24:21;;;;;;;8.27;4.95;;;13.60;99.90;;;;;;4972463;28;20446;-80
2023/09/02 02:26:47;;;;;;;12.70;6.93;;;13.60;99.90;;;;;;4971469;28;20622;-80
2023/09/02 02:29:12;;;;;;;9.30;5.25;;;13.60;99.90;;;;;;4976706;28;20073;-80
2023/09/02 02:31:38;;;;;;;11.10;6.18;;;13.60;99.90;;;;;;4973646;28;20513;-80
2023/09/02 02:34:04;;;;;;;9.77;6.07;;;13.60;99.90;;;;;;4978284;28;20088;-80
2023/09/02 02:36:29;;;;;;;13.10;7.82;;;13.60;99.90;;;;;;4976121;28;20487;-80
2023/09/02 02:38:55;;;;;;;9.35;5.97;;;13.60;99.90;;;;;;4968274;28;20497;-80
2023/09/02 02:41:21;;;;;;;7.05;4.90;;;13.50;99.90;;;;;;4971545;28;20090;-80
2023/09/02 02:43:46;;;;;;;10.75;6.82;;;13.50;99.90;;;;;;4970522;28;20027;-80
2023/09/02 02:46:12;;;;;;;12.05;6.07;;;13.60;99.90;;;;;;4972918;28;20042;-80
2023/09/02 02:48:37;;;;;;;9.45;6.50;;;13.50;99.90;;;;;;4977178;28;20129;-80
2023/09/02 02:51:03;;;;;;;9.05;5.50;;;13.50;99.90;;;;;;4984260;28;20536;-80
2023/09/02 02:53:29;;;;;;;10.73;6.57;;;13.40;99.90;;;;;;4973279;28;20049;-80
2023/09/02 02:55:54;;;;;;;7.45;4.60;;;13.40;99.90;;;;;;4972358;28;20528;-80
2023/09/02 02:58:21;;;;;;;10.27;6.88;;;13.40;99.90;;;;;;4970960;28;20035;-80
2023/09/02 03:00:49;;;;;;;10.95;6.45;;;13.40;99.90;;;;;;4973657;28;20038;-80
2023/09/02 03:03:15;;;;;;;14.10;8.10;;;13.40;99.90;;;;;;4981539;28;20042;-79
2023/09/02 03:05:42;;;;;;;11.18;6.90;;;13.40;99.90;;;;;;4973407;28;20054;-80
2023/09/02 03:08:09;;;;;;;16.75;9.20;;;13.40;99.90;;;;;;4960298;28;20050;-79
2023/09/02 03:10:35;;;;;;;14.55;8.50;;;13.40;99.90;;;;;;4974673;28;20031;-80
2023/09/02 03:13:05;;;;;;;7.15;3.85;;;13.40;99.90;;;;;;4971666;28;20488;-80
2023/09/02 03:15:31;;;;;;;13.82;8.40;;;13.40;99.90;;;;;;4970049;28;20109;-80
2023/09/02 03:17:57;;;;;;;9.88;6.50;;;13.40;99.90;;;;;;4993030;28;20168;-80
2023/09/02 03:20:23;;;;;;;7.50;4.85;;;13.40;99.90;;;;;;4982216;28;20121;-80
2023/09/02 03:22:48;;;;;;;9.45;6.07;;;13.40;99.90;;;;;;4980486;28;20042;-80
2023/09/02 03:25:14;;;;;;;14.95;7.57;;;13.40;99.90;;;;;;4979077;28;20052;-79
2023/09/02 03:27:40;;;;;;;10.05;5.85;;;13.30;99.90;;;;;;4971263;28;20039;-80
2023/09/02 03:30:07;;;;;;;9.45;5.68;;;13.40;99.90;;;;;;4971041;28;20035;-80
2023/09/02 03:32:33;;;;;;;9.93;6.13;;;13.40;99.90;;;;;;4964486;28;20053;-80
2023/09/02 03:34:59;;;;;;;11.02;6.55;;;13.40;99.90;;;;;;4973008;28;20100;-80
2023/09/02 03:37:26;;;;;;;9.82;6.38;;;13.40;99.90;;;;;;4971517;28;20087;-80
2023/09/02 03:39:53;;;;;;;11.95;6.70;;;13.40;99.90;;;;;;4974512;28;20045;-80
2023/09/02 03:42:19;;;;;;;11.90;7.00;;;13.40;99.90;;;;;;4979277;28;20046;-80
2023/09/02 03:44:45;;;;;;;11.98;6.63;;;13.40;99.90;;;;;;4969547;28;20056;-80
2023/09/02 03:47:11;;;;;;;11.95;5.43;;;13.40;99.90;;;;;;4971137;28;20053;-80
2023/09/02 03:49:36;;;;;;;10.02;6.68;;;13.50;99.90;;;;;;4977335;28;20050;-80
2023/09/02 03:52:02;;;;;;;13.70;8.80;;;13.50;99.90;;;;;;4973788;28;20049;-80
2023/09/02 03:54:28;;;;;;;15.55;9.63;;;13.50;99.90;;;;;;4970999;28;20086;-80
2023/09/02 03:56:53;;;;;;;15.77;10.77;;;13.50;99.90;;;;;;4978278;28;20058;-80
2023/09/02 03:59:19;;;;;;;17.48;11.40;;;13.50;99.90;;;;;;4976333;28;20405;-80
2023/09/02 04:01:45;;;;;;;14.77;10.27;;;13.50;99.90;;;;;;4969786;28;20062;-79
2023/09/02 04:04:11;;;;;;;14.75;9.77;;;13.50;99.90;;;;;;4970728;28;20043;-79
2023/09/02 04:06:38;;;;;;;16.80;11.27;;;13.50;99.90;;;;;;4970101;28;20606;-79
2023/09/02 04:09:07;;;;;;;13.55;9.32;;;13.50;99.90;;;;;;4967320;28;20082;-79
2023/09/02 04:11:33;;;;;;;13.60;8.75;;;13.50;99.90;;;;;;4976389;28;20063;-79
2023/09/02 04:14:02;;;;;;;27.98;11.88;;;13.50;99.90;;;;;;4969136;28;20442;-79
2023/09/02 04:16:29;;;;;;;17.63;11.48;;;13.50;99.90;;;;;;4969591;28;20038;-79
2023/09/02 04:18:54;;;;;;;16.70;10.95;;;13.50;99.90;;;;;;4974420;28;20490;-79
2023/09/02 04:21:20;;;;;;;14.70;9.43;;;13.50;99.90;;;;;;4971279;28;20097;-79
2023/09/02 04:23:46;;;;;;;18.08;11.55;;;13.50;99.90;;;;;;4968684;28;20819;-79
2023/09/02 04:26:12;;;;;;;17.95;11.50;;;13.50;99.90;;;;;;4970999;28;20078;-79
2023/09/02 04:28:38;;;;;;;15.52;10.77;;;13.50;99.90;;;;;;4975136;28;20460;-79
2023/09/02 04:31:04;;;;;;;14.63;8.27;;;13.50;99.90;;;;;;4978344;28;20042;-80
2023/09/02 04:33:30;;;;;;;16.85;10.75;;;13.50;99.90;;;;;;4973533;28;20043;-80
2023/09/02 04:35:56;;;;;;;13.30;8.65;;;13.50;99.90;;;;;;4972491;28;20039;-80
2023/09/02 04:38:21;;;;;;;17.42;10.82;;;13.60;99.90;;;;;;4971147;28;21572;-81
2023/09/02 04:40:47;;;;;;;18.30;10.07;;;13.60;99.90;;;;;;4983863;28;20562;-80
2023/09/02 04:43:14;;;;;;;16.35;11.40;;;13.60;99.90;;;;;;4973335;28;20053;-80
2023/09/02 04:45:40;;;;;;;14.60;8.95;;;13.60;99.90;;;;;;4974960;28;20462;-81
2023/09/02 04:48:08;;;;;;;13.73;7.82;;;13.60;99.90;;;;;;4976640;28;20094;-80
2023/09/02 04:50:34;;;;;;;13.60;9.25;;;13.60;99.90;;;;;;4972824;28;20074;-80
2023/09/02 04:53:01;;;;;;;15.68;10.02;;;13.60;99.90;;;;;;4975855;28;20047;-80
2023/09/02 04:55:28;;;;;;;12.20;8.90;;;13.60;99.90;;;;;;4975731;28;20486;-80
2023/09/02 04:57:56;;;;;;;19.33;12.40;;;13.60;99.90;;;;;;4980354;28;20050;-80
2023/09/02 05:00:26;;;;;;;16.75;10.40;;;13.70;99.90;;;;;;4978291;28;20358;-80
2023/09/02 05:02:53;;;;;;;14.50;9.65;;;13.70;99.90;;;;;;4974544;28;20722;-80
2023/09/02 05:05:21;;;;;;;19.45;12.13;;;13.60;99.90;;;;;;4982562;28;20860;-80
2023/09/02 05:07:48;;;;;;;15.90;9.63;;;13.60;99.90;;;;;;4976180;28;20050;-80
2023/09/02 05:10:14;;;;;;;16.67;11.27;;;13.60;99.90;;;;;;4974844;28;20342;-80
2023/09/02 05:12:41;;;;;;;18.73;11.77;;;13.60;99.90;;;;;;4978184;28;20035;-80
2023/09/02 05:15:07;;;;;;;17.75;12.95;;;13.60;99.90;;;;;;4972595;28;20047;-80
2023/09/02 05:17:33;;;;;;;13.70;8.77;;;13.60;99.90;;;;;;4980360;28;20053;-80
2023/09/02 05:20:00;;;;;;;17.90;11.50;;;13.60;99.90;;;;;;4975765;28;20053;-80
2023/09/02 05:22:26;;;;;;;17.20;10.82;;;13.60;99.90;;;;;;4980092;28;20495;-80
2023/09/02 05:24:52;;;;;;;15.82;11.38;;;13.60;99.90;;;;;;4976178;28;20080;-80
2023/09/02 05:27:19;;;;;;;19.08;12.40;;;13.60;99.90;;;;;;4969524;28;20042;-80
2023/09/02 05:29:45;;;;;;;12.35;8.15;;;13.60;99.90;;;;;;4988102;28;20038;-80
2023/09/02 05:32:13;;;;;;;19.23;12.93;;;13.60;99.90;;;;;;4976702;28;20034;-80
2023/09/02 05:34:39;;;;;;;21.45;12.93;;;13.60;99.90;;;;;;4985204;28;20491;-80
2023/09/02 05:37:05;;;;;;;14.05;10.30;;;13.60;99.90;;;;;;4975697;28;20090;-80
2023/09/02 05:39:31;;;;;;;21.27;14.20;;;13.60;99.90;;;;;;4978328;28;20078;-80
2023/09/02 05:41:56;;;;;;;14.07;9.90;;;13.60;99.90;;;;;;4978274;28;20069;-80
2023/09/02 05:44:22;;;;;;;8.93;5.88;;;13.60;99.90;;;;;;4973179;28;20042;-81
2023/09/02 05:46:48;;;;;;;17.38;11.98;;;13.60;99.90;;;;;;4978038;28;20089;-80
2023/09/02 05:49:13;;;;;;;14.93;10.27;;;13.80;99.90;;;;;;4982241;28;20057;-80
2023/09/02 05:51:39;;;;;;;13.27;8.95;;;13.70;99.90;;;;;;4973839;28;20084;-80
2023/09/02 05:54:09;;;;;;;21.63;13.52;;;13.70;99.90;;;;;;4981335;28;20047;-80
2023/09/02 05:56:38;;;;;;;20.15;13.18;;;13.70;99.90;;;;;;4973520;28;20043;-80
2023/09/02 05:59:04;;;;;;;13.57;8.63;;;13.70;99.90;;;;;;4976304;28;20085;-80
2023/09/02 06:01:30;;;;;;;13.38;9.60;;;13.70;99.90;;;;;;4969972;28;20046;-80
2023/09/02 06:03:56;;;;;;;19.35;12.65;;;13.70;99.90;;;;;;4983102;28;20045;-80
2023/09/02 06:06:22;;;;;;;19.45;13.38;;;13.70;99.90;;;;;;4970307;28;20051;-80
2023/09/02 06:08:48;;;;;;;13.80;9.55;;;13.70;99.90;;;;;;4956070;28;20409;-80
2023/09/02 06:11:14;;;;;;;11.15;7.22;;;13.70;99.90;;;;;;4976738;28;20057;-80
2023/09/02 06:13:40;;;;;;;21.40;13.30;;;13.70;99.90;;;;;;4978263;28;20041;-80
2023/09/02 06:16:06;;;;;;;13.00;8.30;;;13.70;99.90;;;;;;4970592;28;20042;-80
2023/09/02 06:18:33;;;;;;;22.00;14.93;;;13.70;99.90;;;;;;4975913;28;20038;-80
2023/09/02 06:20:58;;;;;;;16.23;11.75;;;13.70;99.90;;;;;;4962696;28;20117;-81
2023/09/02 06:23:25;;;;;;;20.90;14.27;;;13.70;99.90;;;;;;4973766;28;20561;-79
2023/09/02 06:25:57;;;;;;;16.80;11.00;;;13.80;99.90;;;;;;4970994;28;20065;-80
2023/09/02 06:28:24;;;;;;;18.92;12.88;;;13.80;99.90;;;;;;4974917;28;20462;-80
2023/09/02 06:30:50;;;;;;;25.40;17.67;;;13.80;99.90;;;;;;4964649;28;20474;-78
2023/09/02 06:33:16;;;;;;;21.42;15.13;;;13.80;99.90;;;;;;4970757;28;20370;-79
2023/09/02 06:35:42;;;;;;;23.25;17.13;;;13.80;99.90;;;;;;4979469;28;20066;-79
2023/09/02 06:38:08;;;;;;;20.73;14.93;;;13.80;99.90;;;;;;4972387;28;20055;-78
2023/09/02 06:40:33;;;;;;;23.35;17.42;;;13.90;99.90;;;;;;4989850;28;20077;-78
2023/09/02 06:42:59;;;;;;;27.25;17.25;;;13.90;99.90;;;;;;4981114;28;20121;-78
2023/09/02 06:45:25;;;;;;;25.33;16.45;;;13.90;99.90;;;;;;4976180;28;20572;-79
2023/09/02 06:47:51;;;;;;;20.98;14.70;;;13.90;99.90;;;;;;4977290;28;20630;-78
2023/09/02 06:50:17;;;;;;;25.33;17.58;;;13.90;99.90;;;;;;4969159;28;20122;-79
2023/09/02 06:52:43;;;;;;;22.85;16.40;;;13.90;99.90;;;;;;4972967;28;20042;-78
2023/09/02 06:55:09;;;;;;;19.27;13.82;;;13.90;99.90;;;;;;4980406;28;20080;-80
2023/09/02 06:57:42;;;;;;;30.63;20.08;;;13.90;99.90;;;;;;4973711;28;20071;-80
2023/09/02 07:00:09;;;;;;;26.42;18.55;;;14.00;99.90;;;;;;4972703;28;20178;-79
2023/09/02 07:02:34;;;;;;;17.73;12.95;;;14.00;99.90;;;;;;4974509;28;20047;-78
2023/09/02 07:05:00;;;;;;;26.83;19.48;;;14.10;99.90;;;;;;4982527;28;20108;-79
2023/09/02 07:07:26;;;;;;;22.85;16.67;;;14.10;99.90;;;;;;4980293;28;20045;-79
2023/09/02 07:09:52;;;;;;;26.13;19.20;;;14.20;99.90;;;;;;4970635;28;20046;-79
2023/09/02 07:12:18;;;;;;;34.40;23.13;;;14.20;99.90;;;;;;4969126;28;20043;-78
2023/09/02 07:14:44;;;;;;;30.60;22.67;;;14.20;99.90;;;;;;4953298;28;20047;-79
2023/09/02 07:17:09;;;;;;;33.72;23.65;;;14.30;99.90;;;;;;4972803;28;20041;-79
2023/09/02 07:19:35;;;;;;;36.33;24.52;;;14.40;99.90;;;;;;4973938;28;20041;-78
2023/09/02 07:22:01;;;;;;;39.15;26.08;;;14.40;99.90;;;;;;4973978;28;20035;-78
2023/09/02 07:24:26;;;;;;;35.38;24.48;;;14.50;99.90;;;;;;4985007;28;20101;-78
2023/09/02 07:26:53;;;;;;;41.22;27.30;;;14.50;99.90;;;;;;4969732;28;20034;-79
2023/09/02 07:29:19;;;;;;;46.13;28.95;;;14.60;99.90;;;;;;4967027;28;20042;-79
2023/09/02 07:31:45;;;;;;;43.92;27.60;;;14.60;99.90;;;;;;4971062;28;20046;-79
2023/09/02 07:34:11;;;;;;;43.50;29.13;;;14.70;99.90;;;;;;4968797;28;20350;-79
2023/09/02 07:36:36;;;;;;;42.28;28.38;;;14.70;99.90;;;;;;4969839;28;20050;-79
2023/09/02 07:39:03;;;;;;;40.45;27.85;;;14.80;99.90;;;;;;4971630;28;20494;-79
2023/09/02 07:41:28;;;;;;;44.15;27.65;;;14.90;99.90;;;;;;4970177;28;20041;-79
2023/09/02 07:43:54;;;;;;;44.08;28.65;;;14.90;99.90;;;;;;4991923;28;20038;-79
2023/09/02 07:46:20;;;;;;;39.47;27.05;;;14.90;99.90;;;;;;4957622;28;20054;-78
2023/09/02 07:48:49;;;;;;;43.58;28.98;;;15.00;99.90;;;;;;4977815;28;20034;-78
2023/09/02 07:51:18;;;;;;;42.53;27.70;;;15.10;99.90;;;;;;4976919;28;20053;-79
2023/09/02 07:53:45;;;;;;;38.20;27.17;;;15.10;99.90;;;;;;4969806;28;20559;-79
2023/09/02 07:56:11;;;;;;;40.83;26.95;;;15.20;99.90;;;;;;4975689;28;20050;-79
2023/09/02 07:58:36;;;;;;;38.78;25.55;;;15.30;99.90;;;;;;4969596;28;20153;-79
2023/09/02 08:01:02;;;;;;;36.85;24.65;;;15.30;99.90;;;;;;4980570;28;20042;-79
2023/09/02 08:03:28;;;;;;;38.20;25.60;;;15.40;99.90;;;;;;4987180;28;20034;-80
2023/09/02 08:05:54;;;;;;;39.70;25.33;;;15.50;99.90;;;;;;4988507;28;20452;-80
2023/09/02 08:08:20;;;;;;;36.45;25.58;;;15.50;99.90;;;;;;4977279;28;20060;-79
2023/09/02 08:10:46;;;;;;;36.30;24.98;;;15.60;99.90;;;;;;4977134;28;20074;-80
2023/09/02 08:13:12;;;;;;;34.33;25.23;;;15.60;99.90;;;;;;4975292;28;20072;-79
2023/09/02 08:15:38;;;;;;;33.17;23.33;;;15.70;99.90;;;;;;4991599;28;20037;-79
2023/09/02 08:18:04;;;;;;;36.78;25.83;;;15.70;99.90;;;;;;4975792;28;20055;-77
2023/09/02 08:20:30;;;;;;;38.63;25.67;;;15.80;99.90;;;;;;4980639;28;20096;-80
2023/09/02 08:22:56;;;;;;;36.70;24.38;;;15.90;99.90;;;;;;4985386;28;20073;-80
2023/09/02 08:25:22;;;;;;;35.33;23.25;;;16.00;99.90;;;;;;4975794;28;20053;-78
2023/09/02 08:27:48;;;;;;;34.35;23.80;;;16.00;99.90;;;;;;4987502;28;20489;-78
2023/09/02 08:30:15;;;;;;;36.22;24.40;;;16.10;99.90;;;;;;4986983;28;20117;-78
2023/09/02 08:32:41;;;;;;;38.20;23.90;;;16.20;99.90;;;;;;4989558;28;20035;-78
2023/09/02 08:35:08;;;;;;;38.03;23.88;;;16.20;99.90;;;;;;4974999;28;20038;-78
2023/09/02 08:37:34;;;;;;;35.33;24.10;;;16.30;99.90;;;;;;4970611;28;20055;-78
2023/09/02 08:40:01;;;;;;;33.60;24.00;;;16.40;99.90;;;;;;4978030;28;20043;-78
2023/09/02 08:42:28;;;;;;;34.53;22.80;;;16.50;99.90;;;;;;4978836;28;20436;-78
2023/09/02 08:44:55;;;;;;;32.42;23.80;;;16.60;99.90;;;;;;4980262;28;20501;-78
2023/09/02 08:47:21;;;;;;;30.15;22.55;;;16.70;99.90;;;;;;4973487;28;20081;-78
2023/09/02 08:49:49;;;;;;;26.83;18.55;;;17.00;99.90;;;;;;4972445;28;20044;-79
2023/09/02 08:52:15;;;;;;;35.33;22.88;;;17.00;99.90;;;;;;4984606;28;20042;-78
2023/09/02 08:54:43;;;;;;;32.47;21.58;;;17.10;99.90;;;;;;4974334;28;20120;-78
2023/09/02 08:57:15;;;;;;;29.77;21.60;;;17.20;99.90;;;;;;4972855;28;20057;-78
2023/09/02 08:59:40;;;;;;;28.13;20.27;;;17.40;99.90;;;;;;4973039;28;20089;-78
2023/09/02 09:02:09;;;;;;;27.42;20.27;;;17.50;99.90;;;;;;4974489;28;20042;-78
2023/09/02 09:04:36;;;;;;;27.52;20.15;;;17.60;99.90;;;;;;4976016;28;20059;-78
2023/09/02 09:07:04;;;;;;;31.95;20.55;;;17.70;99.90;;;;;;4972917;28;20532;-78
2023/09/02 09:09:35;;;;;;;28.98;19.75;;;17.80;99.90;;;;;;4973470;28;20035;-78
2023/09/02 09:12:02;;;;;;;27.63;17.85;;;17.90;99.90;;;;;;4975453;28;20043;-78
2023/09/02 09:14:32;;;;;;;23.63;17.38;;;18.00;99.90;;;;;;4958674;28;20065;-78
2023/09/02 09:16:59;;;;;;;26.42;17.73;;;18.20;99.90;;;;;;4977768;28;20069;-78
2023/09/02 09:19:28;;;;;;;24.55;19.30;;;18.30;99.90;;;;;;4972726;28;20053;-78
2023/09/02 09:21:54;;;;;;;28.55;20.02;;;18.40;99.90;;;;;;4974058;28;20461;-78
2023/09/02 09:24:21;;;;;;;22.63;17.05;;;18.50;99.90;;;;;;4976853;28;20042;-78
2023/09/02 09:26:48;;;;;;;24.00;15.65;;;18.70;99.90;;;;;;4978859;28;20066;-78
2023/09/02 09:29:16;;;;;;;20.77;16.83;;;18.90;99.90;;;;;;4971530;28;20046;-78
2023/09/02 09:31:42;;;;;;;21.75;16.08;;;19.00;99.90;;;;;;4974240;28;20061;-78
2023/09/02 09:34:08;;;;;;;23.85;16.67;;;19.10;99.90;;;;;;4971354;28;20089;-78
2023/09/02 09:36:34;;;;;;;23.88;16.98;;;19.20;99.90;;;;;;4973962;28;20054;-78
2023/09/02 09:39:08;;;;;;;23.38;16.65;;;19.40;99.90;;;;;;4968260;28;20475;-78
2023/09/02 09:41:35;;;;;;;23.65;17.05;;;19.60;99.90;;;;;;4970676;28;20092;-78
2023/09/02 09:44:15;;;;;;;25.30;16.60;;;19.70;99.90;;;;;;4980983;28;20042;-78
2023/09/02 09:46:44;;;;;;;23.15;15.02;;;19.90;99.90;;;;;;4982062;28;20100;-79
2023/09/02 09:49:29;;;;;;;20.55;14.85;;;20.20;99.90;;;;;;4972584;28;20157;-78
2023/09/02 09:52:00;;;;;;;22.17;15.57;;;20.30;99.90;;;;;;4975947;28;20465;-78
2023/09/02 09:54:38;;;;;;;19.70;15.95;;;20.40;99.90;;;;;;4978336;28;20038;-79
2023/09/02 09:57:05;;;;;;;21.10;15.63;;;20.60;99.90;;;;;;4971266;28;20383;-79
2023/09/02 09:59:33;;;;;;;18.92;14.23;;;20.70;99.90;;;;;;4974546;28;20224;-78
2023/09/02 10:02:00;;;;;;;22.77;14.32;;;20.70;99.90;;;;;;4972027;28;20505;-77
2023/09/02 10:04:27;;;;;;;22.88;15.68;;;20.70;99.90;;;;;;4974724;28;20038;-78
2023/09/02 10:06:59;;;;;;;23.23;14.85;;;20.70;99.90;;;;;;4976351;28;20077;-78
2023/09/02 10:09:41;;;;;;;19.10;14.30;;;20.80;99.90;;;;;;4973334;28;20042;-77
2023/09/02 10:12:15;;;;;;;18.05;13.20;;;20.90;99.90;;;;;;4979663;28;20039;-77
2023/09/02 10:14:42;;;;;;;18.27;14.57;;;21.00;99.90;;;;;;4978421;28;20068;-77
2023/09/02 10:17:11;;;;;;;18.15;14.52;;;21.20;99.90;;;;;;4972634;28;20438;-77
2023/09/02 10:19:37;;;;;;;18.58;13.48;;;21.20;99.90;;;;;;4982437;28;20109;-78
2023/09/02 10:22:04;;;;;;;23.25;14.82;;;21.40;99.90;;;;;;4978220;28;20647;-77
2023/09/02 10:24:40;;;;;;;18.27;13.20;;;21.50;99.90;;;;;;4970792;28;20581;-78
2023/09/02 10:27:22;;;;;;;21.23;14.02;;;21.40;99.90;;;;;;4974882;28;20409;-78
2023/09/02 10:29:56;;;;;;;23.27;14.15;;;21.40;99.90;;;;;;4974181;28;20050;-78
2023/09/02 10:32:41;;;;;;;18.60;14.10;;;21.30;99.90;;;;;;4973467;28;20042;-78
2023/09/02 10:35:18;;;;;;;19.80;13.63;;;21.30;99.90;;;;;;4969055;28;20047;-78
2023/09/02 10:37:55;;;;;;;18.45;14.50;;;21.20;99.90;;;;;;4976971;28;20054;-77
2023/09/02 10:40:26;;;;;;;21.10;13.98;;;21.30;99.90;;;;;;4970453;28;20047;-78
2023/09/02 10:42:54;;;;;;;16.33;12.68;;;21.40;99.90;;;;;;4969515;28;20093;-78
2023/09/02 10:45:20;;;;;;;16.15;11.60;;;21.50;99.90;;;;;;4986911;28;20073;-78
2023/09/02 10:47:47;;;;;;;18.65;12.23;;;21.60;99.90;;;;;;4973326;28;20042;-78
2023/09/02 10:50:15;;;;;;;14.38;12.65;;;21.80;99.90;;;;;;4975393;28;20385;-78
2023/09/02 10:52:40;;;;;;;16.90;12.38;;;21.80;99.90;;;;;;4978485;28;20034;-78
2023/09/02 10:55:10;;;;;;;14.38;11.30;;;22.00;99.90;;;;;;4981402;28;20038;-77
2023/09/02 10:57:56;;;;;;;15.57;11.38;;;22.10;99.90;;;;;;4972962;28;20075;-78
2023/09/02 11:00:26;;;;;;;15.45;11.65;;;22.20;99.90;;;;;;4986379;28;20374;-77
2023/09/02 11:02:54;;;;;;;20.27;14.15;;;22.30;99.90;;;;;;4975183;28;20038;-78
2023/09/02 11:05:22;;;;;;;16.50;11.57;;;22.40;99.90;;;;;;4982908;28;20104;-78
2023/09/02 11:07:52;;;;;;;16.80;11.60;;;22.50;99.90;;;;;;4978937;28;20118;-78
2023/09/02 11:10:19;;;;;;;14.45;10.25;;;22.60;99.90;;;;;;4972651;28;20109;-77
2023/09/02 11:13:11;;;;;;;15.95;10.80;;;22.70;99.90;;;;;;4976566;28;20050;-77
2023/09/02 11:15:36;;;;;;;14.45;9.15;;;22.90;99.90;;;;;;4982528;28;20057;-78
2023/09/02 11:18:34;;;;;;;11.82;8.20;;;22.90;99.90;;;;;;4985183;28;20038;-78
2023/09/02 11:20:59;;;;;;;14.68;9.73;;;22.90;99.90;;;;;;4974266;28;20046;-77
2023/09/02 11:23:25;;;;;;;13.05;8.82;;;22.80;99.90;;;;;;4979653;28;20449;-78
2023/09/02 11:26:04;;;;;;;13.95;9.05;;;22.70;99.90;;;;;;4972360;28;20038;-77
2023/09/02 11:28:31;;;;;;;13.98;8.60;;;22.60;99.90;;;;;;4971298;28;20046;-77
2023/09/02 11:31:14;;;;;;;12.02;8.02;;;22.50;99.90;;;;;;4971472;28;21057;-78
2023/09/02 11:33:45;;;;;;;12.02;7.28;;;22.50;99.90;;;;;;4953106;28;20046;-78
2023/09/02 11:36:13;;;;;;;12.93;7.63;;;22.60;99.90;;;;;;4972545;28;20253;-78
2023/09/02 11:38:39;;;;;;;13.15;6.40;;;22.80;99.90;;;;;;4975646;28;20038;-78
2023/09/02 11:41:05;;;;;;;9.65;5.90;;;22.90;99.90;;;;;;4974628;28;20077;-78
2023/09/02 11:43:32;;;;;;;11.32;6.35;;;22.90;99.90;;;;;;4987410;28;20044;-78
2023/09/02 11:45:59;;;;;;;11.98;7.70;;;22.80;99.90;;;;;;4979801;28;20073;-78
2023/09/02 11:48:29;;;;;;;10.40;5.95;;;22.70;99.90;;;;;;4974202;28;20058;-78
2023/09/02 11:50:58;;;;;;;9.55;6.43;;;22.70;99.90;;;;;;4973099;28;20181;-78
2023/09/02 11:53:31;;;;;;;11.10;7.60;;;22.70;99.90;;;;;;4981396;28;20121;-78
2023/09/02 11:55:57;;;;;;;10.50;6.65;;;22.80;99.90;;;;;;4979158;28;20043;-78
2023/09/02 11:58:23;;;;;;;10.43;6.88;;;22.80;99.90;;;;;;4985174;28;20038;-78
2023/09/02 12:00:49;;;;;;;13.60;6.15;;;22.80;99.90;;;;;;4976409;28;20042;-78
2023/09/02 12:03:28;;;;;;;9.10;6.40;;;22.70;99.90;;;;;;4974092;28;20034;-78
2023/09/02 12:05:57;;;;;;;12.65;6.28;;;22.60;99.90;;;;;;4987678;28;20034;-78
2023/09/02 12:08:23;;;;;;;8.82;5.72;;;22.70;99.90;;;;;;4973995;28;20058;-78
2023/09/02 12:10:49;;;;;;;15.13;5.18;;;22.80;99.90;;;;;;4986088;28;20042;-78
2023/09/02 12:13:18;;;;;;;9.65;5.20;;;23.00;99.90;;;;;;4975612;28;20544;-78
2023/09/02 12:15:51;;;;;;;8.43;5.10;;;23.20;99.90;;;;;;4975516;28;20038;-78
2023/09/02 12:18:18;;;;;;;7.77;5.23;;;23.40;99.90;;;;;;4977022;28;20053;-78
2023/09/02 12:20:45;;;;;;;8.20;4.90;;;23.60;99.90;;;;;;4988944;28;20077;-78
2023/09/02 12:23:11;;;;;;;9.93;5.43;;;23.80;99.90;;;;;;4985274;28;20043;-77
2023/09/02 12:25:38;;;;;;;9.30;5.50;;;23.90;99.90;;;;;;4967707;28;20069;-78
2023/09/02 12:28:11;;;;;;;8.45;4.85;;;24.00;99.90;;;;;;4977251;28;20050;-78
2023/09/02 12:30:38;;;;;;;9.43;5.15;;;24.00;99.90;;;;;;4976865;28;20074;-78
2023/09/02 12:33:05;;;;;;;10.98;5.78;;;24.10;99.90;;;;;;4984194;28;20544;-78
2023/09/02 12:35:31;;;;;;;8.10;3.70;;;24.00;99.90;;;;;;4982143;28;20051;-78